sensor_id;sensor_type;location;lat;lon;timestamp;temperature;humidity
20915;DHT22;10617;52.032;5.298;2023-06-24T00:03:32;19.60;99.90
20915;DHT22;10617;52.032;5.298;2023-06-24T00:07:38;19.60;99.90
20915;DHT22;10617;52.032;5.298;2023-06-24T00:11:46;19.60;99.90
20915;DHT22;10617;52.032;5.298;2023-06-24T00:15:48;19.60;99.90
20915;DHT22;10617;52.032;5.298;2023-06-24T00:19:49;19.60;99.90
20915;DHT22;10617;52.032;5.298;2023-06-24T00:23:51;19.60;99.90
20915;DHT22;10617;52.032;5.298;2023-06-24T00:27:52;19.60;99.90
20915;DHT22;10617;52.032;5.298;2023-06-24T00:31:54;19.60;99.90
20915;DHT22;10617;52.032;5.298;2023-06-24T00:35:57;19.50;99.90
20915;DHT22;10617;52.032;5.298;2023-06-24T00:39:58;19.50;99.90
20915;DHT22;10617;52.032;5.298;2023-06-24T00:44:00;19.50;99.90
20915;DHT22;10617;52.032;5.298;2023-06-24T00:48:02;19.50;99.90
20915;DHT22;10617;52.032;5.298;2023-06-24T00:52:05;19.40;99.90
20915;DHT22;10617;52.032;5.298;2023-06-24T00:56:06;19.40;99.90
20915;DHT22;10617;52.032;5.298;2023-06-24T01:00:08;19.40;99.90
20915;DHT22;10617;52.032;5.298;2023-06-24T01:04:19;19.30;99.90
20915;DHT22;10617;52.032;5.298;2023-06-24T01:08:21;19.30;99.90
20915;DHT22;10617;52.032;5.298;2023-06-24T01:12:24;19.30;99.90
20915;DHT22;10617;52.032;5.298;2023-06-24T01:24:44;19.20;99.90
20915;DHT22;10617;52.032;5.298;2023-06-24T01:29:01;19.10;99.90
20915;DHT22;10617;52.032;5.298;2023-06-24T01:33:09;19.00;99.90
20915;DHT22;10617;52.032;5.298;2023-06-24T01:37:16;19.00;99.90
20915;DHT22;10617;52.032;5.298;2023-06-24T01:41:20;19.00;99.90
20915;DHT22;10617;52.032;5.298;2023-06-24T01:45:27;18.90;99.90
20915;DHT22;10617;52.032;5.298;2023-06-24T01:49:29;18.90;99.90
20915;DHT22;10617;52.032;5.298;2023-06-24T01:53:36;18.80;99.90
20915;DHT22;10617;52.032;5.298;2023-06-24T01:57:40;18.70;99.90
20915;DHT22;10617;52.032;5.298;2023-06-24T02:01:43;18.70;99.90
20915;DHT22;10617;52.032;5.298;2023-06-24T02:05:45;18.70;99.90
20915;DHT22;10617;52.032;5.298;2023-06-24T02:09:48;18.60;99.90
20915;DHT22;10617;52.032;5.298;2023-06-24T02:13:51;18.60;99.90
20915;DHT22;10617;52.032;5.298;2023-06-24T02:17:54;18.50;99.90
20915;DHT22;10617;52.032;5.298;2023-06-24T02:21:58;18.50;99.90
20915;DHT22;10617;52.032;5.298;2023-06-24T02:26:00;18.40;99.90
20915;DHT22;10617;52.032;5.298;2023-06-24T02:30:03;18.40;99.90
20915;DHT22;10617;52.032;5.298;2023-06-24T02:34:06;18.30;99.90
20915;DHT22;10617;52.032;5.298;2023-06-24T02:38:07;18.30;99.90
20915;DHT22;10617;52.032;5.298;2023-06-24T02:42:10;18.20;99.90
20915;DHT22;10617;52.032;5.298;2023-06-24T02:46:11;18.20;99.90
20915;DHT22;10617;52.032;5.298;2023-06-24T02:50:16;18.10;99.90
20915;DHT22;10617;52.032;5.298;2023-06-24T02:54:18;18.10;99.90
20915;DHT22;10617;52.032;5.298;2023-06-24T02:58:20;18.00;99.90
20915;DHT22;10617;52.032;5.298;2023-06-24T03:02:22;18.00;99.90
20915;DHT22;10617;52.032;5.298;2023-06-24T03:06:25;18.00;99.90
20915;DHT22;10617;52.032;5.298;2023-06-24T03:10:28;17.90;99.90
20915;DHT22;10617;52.032;5.298;2023-06-24T03:14:29;17.90;99.90
20915;DHT22;10617;52.032;5.298;2023-06-24T03:18:31;17.80;99.90
20915;DHT22;10617;52.032;5.298;2023-06-24T03:22:33;17.80;99.90
20915;DHT22;10617;52.032;5.298;2023-06-24T03:26:35;17.70;99.90
20915;DHT22;10617;52.032;5.298;2023-06-24T03:30:36;17.70;99.90
20915;DHT22;10617;52.032;5.298;2023-06-24T03:34:38;17.70;99.90
20915;DHT22;10617;52.032;5.298;2023-06-24T03:38:40;17.60;99.90
20915;DHT22;10617;52.032;5.298;2023-06-24T03:42:42;17.60;99.90
20915;DHT22;10617;52.032;5.298;2023-06-24T03:46:43;17.50;99.90
20915;DHT22;10617;52.032;5.298;2023-06-24T03:50:45;17.50;99.90
20915;DHT22;10617;52.032;5.298;2023-06-24T03:54:47;17.50;99.90
20915;DHT22;10617;52.032;5.298;2023-06-24T03:58:48;17.40;99.90
20915;DHT22;10617;52.032;5.298;2023-06-24T04:02:50;17.50;99.90
20915;DHT22;10617;52.032;5.298;2023-06-24T04:17:00;17.50;99.90
20915;DHT22;10617;52.032;5.298;2023-06-24T04:21:03;17.60;99.90
20915;DHT22;10617;52.032;5.298;2023-06-24T04:25:05;17.60;99.90
20915;DHT22;10617;52.032;5.298;2023-06-24T04:29:07;17.60;99.90
20915;DHT22;10617;52.032;5.298;2023-06-24T04:33:09;17.70;99.90
20915;DHT22;10617;52.032;5.298;2023-06-24T04:37:10;17.80;99.90
20915;DHT22;10617;52.032;5.298;2023-06-24T04:41:12;17.80;99.90
20915;DHT22;10617;52.032;5.298;2023-06-24T04:45:14;17.90;99.90
20915;DHT22;10617;52.032;5.298;2023-06-24T04:49:16;17.90;99.90
20915;DHT22;10617;52.032;5.298;2023-06-24T04:53:18;17.90;99.90
20915;DHT22;10617;52.032;5.298;2023-06-24T04:57:26;18.00;99.90
20915;DHT22;10617;52.032;5.298;2023-06-24T05:01:28;18.00;99.90
20915;DHT22;10617;52.032;5.298;2023-06-24T05:05:30;18.10;99.90
20915;DHT22;10617;52.032;5.298;2023-06-24T05:09:34;18.20;99.90
20915;DHT22;10617;52.032;5.298;2023-06-24T05:13:39;18.30;99.90
20915;DHT22;10617;52.032;5.298;2023-06-24T05:17:41;18.40;99.90
20915;DHT22;10617;52.032;5.298;2023-06-24T05:21:43;18.50;99.90
20915;DHT22;10617;52.032;5.298;2023-06-24T05:25:46;18.70;99.90
20915;DHT22;10617;52.032;5.298;2023-06-24T05:29:47;18.80;99.90
20915;DHT22;10617;52.032;5.298;2023-06-24T05:33:49;19.00;99.90
20915;DHT22;10617;52.032;5.298;2023-06-24T05:37:50;19.10;99.90
20915;DHT22;10617;52.032;5.298;2023-06-24T05:41:52;19.20;99.90
20915;DHT22;10617;52.032;5.298;2023-06-24T05:45:54;19.30;99.90
20915;DHT22;10617;52.032;5.298;2023-06-24T06:05:05;19.70;99.90
20915;DHT22;10617;52.032;5.298;2023-06-24T06:09:08;19.80;99.90
20915;DHT22;10617;52.032;5.298;2023-06-24T06:13:10;19.80;99.90
20915;DHT22;10617;52.032;5.298;2023-06-24T06:17:13;19.90;99.90
20915;DHT22;10617;52.032;5.298;2023-06-24T06:21:15;20.00;99.90
20915;DHT22;10617;52.032;5.298;2023-06-24T06:25:16;20.10;99.90
20915;DHT22;10617;52.032;5.298;2023-06-24T06:29:18;20.20;99.90
20915;DHT22;10617;52.032;5.298;2023-06-24T06:33:20;20.20;99.90
20915;DHT22;10617;52.032;5.298;2023-06-24T06:37:21;20.30;99.90
20915;DHT22;10617;52.032;5.298;2023-06-24T06:51:02;20.50;99.90
20915;DHT22;10617;52.032;5.298;2023-06-24T06:55:03;20.60;99.90
20915;DHT22;10617;52.032;5.298;2023-06-24T06:59:05;20.70;99.90
20915;DHT22;10617;52.032;5.298;2023-06-24T07:03:07;20.80;99.90
20915;DHT22;10617;52.032;5.298;2023-06-24T07:07:09;20.80;99.90
20915;DHT22;10617;52.032;5.298;2023-06-24T07:11:10;20.90;99.90
20915;DHT22;10617;52.032;5.298;2023-06-24T07:15:12;21.00;99.90
20915;DHT22;10617;52.032;5.298;2023-06-24T07:19:14;21.10;99.90
20915;DHT22;10617;52.032;5.298;2023-06-24T07:23:15;21.10;99.90
20915;DHT22;10617;52.032;5.298;2023-06-24T07:27:17;21.30;99.90
20915;DHT22;10617;52.032;5.298;2023-06-24T07:31:19;21.40;99.90
20915;DHT22;10617;52.032;5.298;2023-06-24T07:35:20;21.40;99.90
20915;DHT22;10617;52.032;5.298;2023-06-24T07:39:22;21.50;99.90
20915;DHT22;10617;52.032;5.298;2023-06-24T07:43:24;21.60;99.90
20915;DHT22;10617;52.032;5.298;2023-06-24T07:47:25;21.70;99.90
20915;DHT22;10617;52.032;5.298;2023-06-24T07:51:27;21.70;99.90
20915;DHT22;10617;52.032;5.298;2023-06-24T07:55:29;21.80;99.90
20915;DHT22;10617;52.032;5.298;2023-06-24T07:59:30;21.80;99.90
20915;DHT22;10617;52.032;5.298;2023-06-24T08:03:33;21.90;99.90
20915;DHT22;10617;52.032;5.298;2023-06-24T08:07:35;21.90;99.90
20915;DHT22;10617;52.032;5.298;2023-06-24T08:11:40;22.00;99.90
20915;DHT22;10617;52.032;5.298;2023-06-24T08:15:41;22.00;99.90
20915;DHT22;10617;52.032;5.298;2023-06-24T08:19:43;22.10;99.90
20915;DHT22;10617;52.032;5.298;2023-06-24T08:23:45;22.10;99.90
20915;DHT22;10617;52.032;5.298;2023-06-24T08:27:47;22.20;99.90
20915;DHT22;10617;52.032;5.298;2023-06-24T08:31:48;22.20;99.90
20915;DHT22;10617;52.032;5.298;2023-06-24T08:35:50;22.40;99.90
20915;DHT22;10617;52.032;5.298;2023-06-24T08:39:52;22.40;99.90
20915;DHT22;10617;52.032;5.298;2023-06-24T08:43:53;22.50;99.90
20915;DHT22;10617;52.032;5.298;2023-06-24T08:47:56;22.60;99.90
20915;DHT22;10617;52.032;5.298;2023-06-24T08:52:00;22.70;99.90
20915;DHT22;10617;52.032;5.298;2023-06-24T08:56:02;22.70;99.90
20915;DHT22;10617;52.032;5.298;2023-06-24T09:00:04;22.80;99.90
20915;DHT22;10617;52.032;5.298;2023-06-24T09:04:07;22.80;99.90
20915;DHT22;10617;52.032;5.298;2023-06-24T09:08:08;22.80;99.90
20915;DHT22;10617;52.032;5.298;2023-06-24T09:12:11;22.90;99.90
20915;DHT22;10617;52.032;5.298;2023-06-24T09:16:15;23.00;99.90
20915;DHT22;10617;52.032;5.298;2023-06-24T09:20:19;23.00;99.90
20915;DHT22;10617;52.032;5.298;2023-06-24T09:24:26;23.10;99.90
20915;DHT22;10617;52.032;5.298;2023-06-24T09:28:28;23.20;99.90
20915;DHT22;10617;52.032;5.298;2023-06-24T09:32:30;23.20;99.90
20915;DHT22;10617;52.032;5.298;2023-06-24T09:36:32;23.30;99.90
20915;DHT22;10617;52.032;5.298;2023-06-24T09:40:34;23.40;99.90
20915;DHT22;10617;52.032;5.298;2023-06-24T09:44:36;23.40;99.90
20915;DHT22;10617;52.032;5.298;2023-06-24T09:48:38;23.50;99.90
20915;DHT22;10617;52.032;5.298;2023-06-24T09:52:40;23.50;99.90
20915;DHT22;10617;52.032;5.298;2023-06-24T09:56:43;23.50;99.90
20915;DHT22;10617;52.032;5.298;2023-06-24T10:00:48;23.60;99.90
20915;DHT22;10617;52.032;5.298;2023-06-24T10:04:50;23.70;99.90
20915;DHT22;10617;52.032;5.298;2023-06-24T10:08:53;23.80;99.90
20915;DHT22;10617;52.032;5.298;2023-06-24T10:12:54;23.80;99.90
20915;DHT22;10617;52.032;5.298;2023-06-24T10:17:02;23.90;99.90
20915;DHT22;10617;52.032;5.298;2023-06-24T10:21:06;24.00;99.90
20915;DHT22;10617;52.032;5.298;2023-06-24T10:25:08;24.00;99.90
20915;DHT22;10617;52.032;5.298;2023-06-24T10:29:12;24.10;99.90
20915;DHT22;10617;52.032;5.298;2023-06-24T10:33:15;24.20;99.90
20915;DHT22;10617;52.032;5.298;2023-06-24T10:41:19;24.30;99.90
20915;DHT22;10617;52.032;5.298;2023-06-24T10:45:20;24.30;99.90
20915;DHT22;10617;52.032;5.298;2023-06-24T10:49:23;24.40;99.90
20915;DHT22;10617;52.032;5.298;2023-06-24T10:53:25;24.50;99.90
20915;DHT22;10617;52.032;5.298;2023-06-24T10:57:27;24.50;99.90
20915;DHT22;10617;52.032;5.298;2023-06-24T11:01:29;24.60;99.90
20915;DHT22;10617;52.032;5.298;2023-06-24T11:05:31;24.60;99.90
20915;DHT22;10617;52.032;5.298;2023-06-24T11:09:32;24.70;99.90
20915;DHT22;10617;52.032;5.298;2023-06-24T11:13:34;24.70;99.90
20915;DHT22;10617;52.032;5.298;2023-06-24T11:17:36;24.80;99.90
20915;DHT22;10617;52.032;5.298;2023-06-24T11:21:38;24.90;99.90
20915;DHT22;10617;52.032;5.298;2023-06-24T11:25:40;25.00;99.90
20915;DHT22;10617;52.032;5.298;2023-06-24T11:29:44;25.10;99.90
20915;DHT22;10617;52.032;5.298;2023-06-24T11:33:49;25.10;99.90
20915;DHT22;10617;52.032;5.298;2023-06-24T11:37:50;25.20;99.90
20915;DHT22;10617;52.032;5.298;2023-06-24T11:41:52;25.20;99.90
20915;DHT22;10617;52.032;5.298;2023-06-24T11:45:54;25.20;99.90
20915;DHT22;10617;52.032;5.298;2023-06-24T11:49:57;25.30;99.90
20915;DHT22;10617;52.032;5.298;2023-06-24T11:54:00;25.40;99.90
20915;DHT22;10617;52.032;5.298;2023-06-24T11:58:03;25.40;99.90
20915;DHT22;10617;52.032;5.298;2023-06-24T12:02:12;25.50;99.90
20915;DHT22;10617;52.032;5.298;2023-06-24T12:06:14;25.60;99.90
20915;DHT22;10617;52.032;5.298;2023-06-24T12:10:16;25.60;99.90
20915;DHT22;10617;52.032;5.298;2023-06-24T12:14:18;25.70;99.90
20915;DHT22;10617;52.032;5.298;2023-06-24T12:18:20;25.80;99.90
20915;DHT22;10617;52.032;5.298;2023-06-24T12:22:21;25.80;99.90
20915;DHT22;10617;52.032;5.298;2023-06-24T12:26:23;25.90;99.90
20915;DHT22;10617;52.032;5.298;2023-06-24T12:30:25;25.90;99.90
20915;DHT22;10617;52.032;5.298;2023-06-24T12:34:26;26.00;99.90
20915;DHT22;10617;52.032;5.298;2023-06-24T12:38:28;25.90;99.90
20915;DHT22;10617;52.032;5.298;2023-06-24T12:42:30;25.90;99.90
20915;DHT22;10617;52.032;5.298;2023-06-24T12:46:31;26.00;99.90
20915;DHT22;10617;52.032;5.298;2023-06-24T12:50:33;26.10;99.90
20915;DHT22;10617;52.032;5.298;2023-06-24T12:54:35;26.20;99.90
20915;DHT22;10617;52.032;5.298;2023-06-24T12:58:37;26.30;99.90
20915;DHT22;10617;52.032;5.298;2023-06-24T13:02:38;26.30;99.90
20915;DHT22;10617;52.032;5.298;2023-06-24T13:06:40;26.40;99.90
20915;DHT22;10617;52.032;5.298;2023-06-24T13:10:42;26.40;99.90
20915;DHT22;10617;52.032;5.298;2023-06-24T13:14:44;26.40;99.90
20915;DHT22;10617;52.032;5.298;2023-06-24T13:18:46;26.40;99.90
20915;DHT22;10617;52.032;5.298;2023-06-24T13:22:47;26.40;99.90
20915;DHT22;10617;52.032;5.298;2023-06-24T13:26:49;26.40;99.90
20915;DHT22;10617;52.032;5.298;2023-06-24T13:30:52;26.40;99.90
20915;DHT22;10617;52.032;5.298;2023-06-24T13:34:55;26.50;99.90
20915;DHT22;10617;52.032;5.298;2023-06-24T13:38:57;26.60;99.90
20915;DHT22;10617;52.032;5.298;2023-06-24T13:42:59;26.60;99.90
20915;DHT22;10617;52.032;5.298;2023-06-24T13:47:01;26.70;99.90
20915;DHT22;10617;52.032;5.298;2023-06-24T13:51:03;26.80;99.90
20915;DHT22;10617;52.032;5.298;2023-06-24T13:55:05;26.80;99.90
20915;DHT22;10617;52.032;5.298;2023-06-24T13:59:07;26.90;99.90
20915;DHT22;10617;52.032;5.298;2023-06-24T14:03:08;26.90;99.90
20915;DHT22;10617;52.032;5.298;2023-06-24T14:07:10;27.00;99.90
20915;DHT22;10617;52.032;5.298;2023-06-24T14:11:12;26.90;99.90
20915;DHT22;10617;52.032;5.298;2023-06-24T14:15:14;27.00;99.90
20915;DHT22;10617;52.032;5.298;2023-06-24T14:19:15;27.10;99.90
20915;DHT22;10617;52.032;5.298;2023-06-24T14:23:18;27.10;99.90
20915;DHT22;10617;52.032;5.298;2023-06-24T14:27:19;27.10;99.90
20915;DHT22;10617;52.032;5.298;2023-06-24T14:31:21;27.20;99.90
20915;DHT22;10617;52.032;5.298;2023-06-24T14:35:23;27.20;99.90
20915;DHT22;10617;52.032;5.298;2023-06-24T14:39:25;27.30;99.90
20915;DHT22;10617;52.032;5.298;2023-06-24T14:43:28;27.30;99.90
20915;DHT22;10617;52.032;5.298;2023-06-24T15:02:41;27.70;99.90
20915;DHT22;10617;52.032;5.298;2023-06-24T15:06:43;27.70;99.90
20915;DHT22;10617;52.032;5.298;2023-06-24T15:10:45;27.70;99.90
20915;DHT22;10617;52.032;5.298;2023-06-24T15:14:46;27.70;99.90
20915;DHT22;10617;52.032;5.298;2023-06-24T15:18:49;27.70;99.90
20915;DHT22;10617;52.032;5.298;2023-06-24T15:22:51;27.60;99.90
20915;DHT22;10617;52.032;5.298;2023-06-24T15:26:53;27.70;99.90
20915;DHT22;10617;52.032;5.298;2023-06-24T15:30:55;27.80;99.90
20915;DHT22;10617;52.032;5.298;2023-06-24T15:34:56;27.80;99.90
20915;DHT22;10617;52.032;5.298;2023-06-24T15:38:58;27.80;99.90
20915;DHT22;10617;52.032;5.298;2023-06-24T15:43:00;27.90;99.90
20915;DHT22;10617;52.032;5.298;2023-06-24T15:47:02;28.00;99.90
20915;DHT22;10617;52.032;5.298;2023-06-24T15:51:05;28.10;99.90
20915;DHT22;10617;52.032;5.298;2023-06-24T15:55:07;28.20;99.90
20915;DHT22;10617;52.032;5.298;2023-06-24T15:59:10;28.30;99.90
20915;DHT22;10617;52.032;5.298;2023-06-24T16:03:11;28.40;99.90
20915;DHT22;10617;52.032;5.298;2023-06-24T16:07:13;28.50;99.90
20915;DHT22;10617;52.032;5.298;2023-06-24T16:11:15;28.60;99.90
20915;DHT22;10617;52.032;5.298;2023-06-24T16:15:16;28.80;99.90
20915;DHT22;10617;52.032;5.298;2023-06-24T16:19:18;29.00;99.90
20915;DHT22;10617;52.032;5.298;2023-06-24T16:23:20;29.10;99.90
20915;DHT22;10617;52.032;5.298;2023-06-24T16:27:22;29.10;99.90
20915;DHT22;10617;52.032;5.298;2023-06-24T16:31:24;29.20;99.90
20915;DHT22;10617;52.032;5.298;2023-06-24T16:35:25;29.50;99.90
20915;DHT22;10617;52.032;5.298;2023-06-24T16:39:27;29.70;99.90
20915;DHT22;10617;52.032;5.298;2023-06-24T16:43:29;29.90;99.90
20915;DHT22;10617;52.032;5.298;2023-06-24T16:47:30;30.10;99.90
20915;DHT22;10617;52.032;5.298;2023-06-24T16:51:33;30.20;99.90
20915;DHT22;10617;52.032;5.298;2023-06-24T16:55:34;30.20;99.90
20915;DHT22;10617;52.032;5.298;2023-06-24T16:59:36;30.20;99.90
20915;DHT22;10617;52.032;5.298;2023-06-24T17:03:38;30.20;99.90
20915;DHT22;10617;52.032;5.298;2023-06-24T17:07:39;30.20;99.90
20915;DHT22;10617;52.032;5.298;2023-06-24T17:11:41;30.10;99.90
20915;DHT22;10617;52.032;5.298;2023-06-24T17:15:43;29.80;99.90
20915;DHT22;10617;52.032;5.298;2023-06-24T17:19:44;29.60;99.90
20915;DHT22;10617;52.032;5.298;2023-06-24T17:23:46;29.40;99.90
20915;DHT22;10617;52.032;5.298;2023-06-24T17:27:48;29.20;99.90
20915;DHT22;10617;52.032;5.298;2023-06-24T17:31:50;29.10;99.90
20915;DHT22;10617;52.032;5.298;2023-06-24T17:35:51;29.00;99.90
20915;DHT22;10617;52.032;5.298;2023-06-24T17:39:53;28.80;99.90
20915;DHT22;10617;52.032;5.298;2023-06-24T17:43:55;28.50;99.90
20915;DHT22;10617;52.032;5.298;2023-06-24T17:47:56;28.40;99.90
20915;DHT22;10617;52.032;5.298;2023-06-24T17:51:58;28.30;99.90
20915;DHT22;10617;52.032;5.298;2023-06-24T17:56:00;28.20;99.90
20915;DHT22;10617;52.032;5.298;2023-06-24T18:00:01;28.00;99.90
20915;DHT22;10617;52.032;5.298;2023-06-24T18:04:03;27.90;99.90
20915;DHT22;10617;52.032;5.298;2023-06-24T18:08:05;27.70;99.90
20915;DHT22;10617;52.032;5.298;2023-06-24T18:12:07;27.70;99.90
20915;DHT22;10617;52.032;5.298;2023-06-24T18:16:08;27.70;99.90
20915;DHT22;10617;52.032;5.298;2023-06-24T18:20:10;27.70;99.90
20915;DHT22;10617;52.032;5.298;2023-06-24T18:24:12;27.60;99.90
20915;DHT22;10617;52.032;5.298;2023-06-24T18:28:14;27.60;99.90
20915;DHT22;10617;52.032;5.298;2023-06-24T18:32:15;27.50;99.90
20915;DHT22;10617;52.032;5.298;2023-06-24T18:36:17;27.40;99.90
20915;DHT22;10617;52.032;5.298;2023-06-24T18:40:20;27.40;99.90
20915;DHT22;10617;52.032;5.298;2023-06-24T18:44:21;27.30;99.90
20915;DHT22;10617;52.032;5.298;2023-06-24T18:48:23;27.30;99.90
20915;DHT22;10617;52.032;5.298;2023-06-24T18:52:25;27.30;99.90
20915;DHT22;10617;52.032;5.298;2023-06-24T18:56:26;27.30;99.90
20915;DHT22;10617;52.032;5.298;2023-06-24T19:00:28;27.20;99.90
20915;DHT22;10617;52.032;5.298;2023-06-24T19:04:30;27.10;99.90
20915;DHT22;10617;52.032;5.298;2023-06-24T19:08:34;27.00;99.90
20915;DHT22;10617;52.032;5.298;2023-06-24T19:12:35;27.00;99.90
20915;DHT22;10617;52.032;5.298;2023-06-24T19:16:37;26.90;99.90
20915;DHT22;10617;52.032;5.298;2023-06-24T19:20:39;26.80;99.90
20915;DHT22;10617;52.032;5.298;2023-06-24T19:24:40;26.80;99.90
20915;DHT22;10617;52.032;5.298;2023-06-24T19:28:42;26.70;99.90
20915;DHT22;10617;52.032;5.298;2023-06-24T19:32:44;26.60;99.90
20915;DHT22;10617;52.032;5.298;2023-06-24T19:36:53;26.50;99.90
20915;DHT22;10617;52.032;5.298;2023-06-24T19:40:56;26.40;99.90
20915;DHT22;10617;52.032;5.298;2023-06-24T19:44:58;26.40;99.90
20915;DHT22;10617;52.032;5.298;2023-06-24T19:48:59;26.30;99.90
20915;DHT22;10617;52.032;5.298;2023-06-24T19:53:01;26.20;99.90
20915;DHT22;10617;52.032;5.298;2023-06-24T19:57:03;26.20;99.90
20915;DHT22;10617;52.032;5.298;2023-06-24T20:01:04;26.10;99.90
20915;DHT22;10617;52.032;5.298;2023-06-24T20:05:07;26.00;99.90
20915;DHT22;10617;52.032;5.298;2023-06-24T20:09:08;26.00;99.90
20915;DHT22;10617;52.032;5.298;2023-06-24T20:13:10;26.00;99.90
20915;DHT22;10617;52.032;5.298;2023-06-24T20:17:12;25.90;99.90
20915;DHT22;10617;52.032;5.298;2023-06-24T20:21:14;25.80;99.90
20915;DHT22;10617;52.032;5.298;2023-06-24T20:25:15;25.80;99.90
20915;DHT22;10617;52.032;5.298;2023-06-24T20:29:18;25.60;99.90
20915;DHT22;10617;52.032;5.298;2023-06-24T20:33:20;25.50;99.90
20915;DHT22;10617;52.032;5.298;2023-06-24T20:37:24;25.30;99.90
20915;DHT22;10617;52.032;5.298;2023-06-24T20:41:26;25.20;99.90
20915;DHT22;10617;52.032;5.298;2023-06-24T20:45:33;25.10;99.90
20915;DHT22;10617;52.032;5.298;2023-06-24T20:49:35;25.00;99.90
20915;DHT22;10617;52.032;5.298;2023-06-24T20:53:36;24.90;99.90
20915;DHT22;10617;52.032;5.298;2023-06-24T20:57:38;24.90;99.90
20915;DHT22;10617;52.032;5.298;2023-06-24T21:01:40;24.80;99.90
20915;DHT22;10617;52.032;5.298;2023-06-24T21:05:42;24.80;99.90
20915;DHT22;10617;52.032;5.298;2023-06-24T21:09:43;24.70;99.90
20915;DHT22;10617;52.032;5.298;2023-06-24T21:13:45;24.70;99.90
20915;DHT22;10617;52.032;5.298;2023-06-24T21:17:47;24.70;99.90
20915;DHT22;10617;52.032;5.298;2023-06-24T21:21:50;24.60;99.90
20915;DHT22;10617;52.032;5.298;2023-06-24T21:25:52;24.50;99.90
20915;DHT22;10617;52.032;5.298;2023-06-24T21:29:56;24.40;99.90
20915;DHT22;10617;52.032;5.298;2023-06-24T21:33:58;24.30;99.90
20915;DHT22;10617;52.032;5.298;2023-06-24T21:38:00;24.20;99.90
20915;DHT22;10617;52.032;5.298;2023-06-24T21:42:02;24.00;99.90
20915;DHT22;10617;52.032;5.298;2023-06-24T21:46:03;23.90;99.90
20915;DHT22;10617;52.032;5.298;2023-06-24T21:50:05;23.80;99.90
20915;DHT22;10617;52.032;5.298;2023-06-24T21:54:07;23.70;99.90
20915;DHT22;10617;52.032;5.298;2023-06-24T21:58:08;23.60;99.90
20915;DHT22;10617;52.032;5.298;2023-06-24T22:07:13;23.50;99.90
20915;DHT22;10617;52.032;5.298;2023-06-24T22:11:15;23.50;99.90
20915;DHT22;10617;52.032;5.298;2023-06-24T22:15:17;23.50;99.90
20915;DHT22;10617;52.032;5.298;2023-06-24T22:19:18;23.50;99.90
20915;DHT22;10617;52.032;5.298;2023-06-24T22:23:20;23.50;99.90
20915;DHT22;10617;52.032;5.298;2023-06-24T22:27:22;23.40;99.90
20915;DHT22;10617;52.032;5.298;2023-06-24T22:31:24;23.40;99.90
20915;DHT22;10617;52.032;5.298;2023-06-24T22:35:25;23.30;99.90
20915;DHT22;10617;52.032;5.298;2023-06-24T22:39:27;23.20;99.90
20915;DHT22;10617;52.032;5.298;2023-06-24T22:43:29;23.10;99.90
20915;DHT22;10617;52.032;5.298;2023-06-24T22:47:30;23.00;99.90
20915;DHT22;10617;52.032;5.298;2023-06-24T22:51:32;22.80;99.90
20915;DHT22;10617;52.032;5.298;2023-06-24T22:55:34;22.70;99.90
20915;DHT22;10617;52.032;5.298;2023-06-24T23:09:14;22.50;99.90
20915;DHT22;10617;52.032;5.298;2023-06-24T23:13:16;22.50;99.90
20915;DHT22;10617;52.032;5.298;2023-06-24T23:17:19;22.40;99.90
20915;DHT22;10617;52.032;5.298;2023-06-24T23:21:22;22.40;99.90
20915;DHT22;10617;52.032;5.298;2023-06-24T23:25:24;22.40;99.90
20915;DHT22;10617;52.032;5.298;2023-06-24T23:29:30;22.40;99.90
20915;DHT22;10617;52.032;5.298;2023-06-24T23:33:33;22.40;99.90
20915;DHT22;10617;52.032;5.298;2023-06-24T23:37:36;22.40;99.90
20915;DHT22;10617;52.032;5.298;2023-06-24T23:41:38;22.50;99.90
20915;DHT22;10617;52.032;5.298;2023-06-24T23:45:47;22.50;99.90
20915;DHT22;10617;52.032;5.298;2023-06-24T23:49:49;22.50;99.90
20915;DHT22;10617;52.032;5.298;2023-06-24T23:58:54;22.50;99.90
